Affton, Missouri
Current Conditions -  °F | °C
As of 12:53 PM on Friday 21 Nov 2014 (Local Time) from KCPS Reporting Station
Broken Clouds Broken Clouds  
Wind Chill:   Ceiling: 3900
Heat Index:   Visibility: 10mi
Dew Point: -6°   Wind: 9mph
Humidity: 45%   Direction: 150°SSE
Pressure: 30.36"   Gusts: NA
Location:  38.55°N, 90.33°W
Report Text: KCPS 211853Z 15008KT 10SM BKN039 05/M06 A3036 RMK AO2 SLP286 T00501061
Loading
Personal Weather Stations






























Interactive Weather Map New forecast layout! Learn more

10-Day Weather Forecast

Advertisements
Track Severe Weather on mobile